sensor_id;sensor_type;location;lat;lon;timestamp;P1;durP1;ratioP1;P2;durP2;ratioP2
63900;SDS011;50538;53.482;10.294;2024-02-28T06:59:31;8.35;;;3.08;;
63900;SDS011;50538;53.482;10.294;2024-02-28T07:20:46;7.78;;;2.72;;
63900;SDS011;50538;53.482;10.294;2024-02-28T07:31:01;6.40;;;2.13;;
63900;SDS011;50538;53.482;10.294;2024-02-28T07:41:21;5.90;;;2.15;;
63900;SDS011;50538;53.482;10.294;2024-02-28T07:51:37;11.38;;;2.92;;
63900;SDS011;50538;53.482;10.294;2024-02-28T08:02:05;5.37;;;2.70;;
63900;SDS011;50538;53.482;10.294;2024-02-28T08:12:26;11.45;;;3.97;;
63900;SDS011;50538;53.482;10.294;2024-02-28T08:33:38;7.03;;;2.58;;
63900;SDS011;50538;53.482;10.294;2024-02-28T08:43:54;6.00;;;2.50;;
63900;SDS011;50538;53.482;10.294;2024-02-28T08:54:16;7.15;;;3.03;;
63900;SDS011;50538;53.482;10.294;2024-02-28T09:04:48;9.75;;;2.75;;
63900;SDS011;50538;53.482;10.294;2024-02-28T09:15:03;8.98;;;2.53;;
63900;SDS011;50538;53.482;10.294;2024-02-28T09:25:26;11.55;;;4.45;;
63900;SDS011;50538;53.482;10.294;2024-02-28T09:35:42;10.77;;;4.28;;
63900;SDS011;50538;53.482;10.294;2024-02-28T09:46:19;17.20;;;6.00;;
63900;SDS011;50538;53.482;10.294;2024-02-28T09:56:51;11.90;;;5.05;;
63900;SDS011;50538;53.482;10.294;2024-02-28T10:07:26;14.20;;;5.50;;
63900;SDS011;50538;53.482;10.294;2024-02-28T10:27:59;12.55;;;5.38;;
63900;SDS011;50538;53.482;10.294;2024-02-28T10:38:49;14.02;;;6.20;;
63900;SDS011;50538;53.482;10.294;2024-02-28T10:49:11;14.35;;;4.80;;
63900;SDS011;50538;53.482;10.294;2024-02-28T11:00:02;16.87;;;5.97;;
63900;SDS011;50538;53.482;10.294;2024-02-28T11:10:34;14.60;;;5.72;;
63900;SDS011;50538;53.482;10.294;2024-02-28T11:21:00;11.90;;;3.95;;
63900;SDS011;50538;53.482;10.294;2024-02-28T11:31:38;13.30;;;4.88;;
63900;SDS011;50538;53.482;10.294;2024-02-28T11:42:15;11.55;;;4.88;;
63900;SDS011;50538;53.482;10.294;2024-02-28T11:52:50;17.35;;;5.85;;
63900;SDS011;50538;53.482;10.294;2024-02-28T12:14:02;13.20;;;4.53;;
63900;SDS011;50538;53.482;10.294;2024-02-28T12:24:34;14.38;;;5.18;;
63900;SDS011;50538;53.482;10.294;2024-02-28T12:35:16;14.13;;;5.23;;
63900;SDS011;50538;53.482;10.294;2024-02-28T12:46:02;16.80;;;6.15;;
63900;SDS011;50538;53.482;10.294;2024-02-28T12:56:53;14.80;;;5.82;;
63900;SDS011;50538;53.482;10.294;2024-02-28T13:07:22;17.65;;;5.47;;
63900;SDS011;50538;53.482;10.294;2024-02-28T13:50:17;12.82;;;4.95;;
63900;SDS011;50538;53.482;10.294;2024-02-28T14:22:46;14.40;;;5.63;;
63900;SDS011;50538;53.482;10.294;2024-02-28T14:44:19;12.43;;;4.63;;
63900;SDS011;50538;53.482;10.294;2024-02-28T14:55:10;7.95;;;3.20;;
63900;SDS011;50538;53.482;10.294;2024-02-28T15:06:12;10.45;;;4.25;;
63900;SDS011;50538;53.482;10.294;2024-02-28T15:27:47;8.88;;;3.67;;
63900;SDS011;50538;53.482;10.294;2024-02-28T15:38:30;8.40;;;3.45;;
63900;SDS011;50538;53.482;10.294;2024-02-28T15:49:18;14.93;;;3.90;;
63900;SDS011;50538;53.482;10.294;2024-02-28T15:59:47;10.30;;;3.83;;
